Time;durP1;ratioP1;P1;durP2;ratioP2;P2;SDS_P1;SDS_P2;PMS_P1;PMS_P2;Temp;Humidity;BMP_temperature;BMP_pressure;BME280_temperature;BME280_humidity;BME280_pressure;Samples;Min_cycle;Max_cycle;Signal;HPM_P1;HPM_P2
2021/09/04 00:00:22;;;;;;;25.15;15.20;;;;;;;;;;2089849;28;20534;-54
2021/09/04 00:01:22;;;;;;;20.38;16.23;;;;;;;;;;2090816;28;20171;-53
2021/09/04 00:02:22;;;;;;;21.60;15.60;;;;;;;;;;2092315;28;20159;-54
2021/09/04 00:03:22;;;;;;;25.10;17.67;;;;;;;;;;2093151;28;20180;-55
2021/09/04 00:04:23;;;;;;;26.52;17.33;;;;;;;;;;2093903;28;20164;-56
2021/09/04 00:05:24;;;;;;;22.85;16.35;;;;;;;;;;2093265;28;20168;-53
2021/09/04 00:06:24;;;;;;;20.85;15.85;;;;;;;;;;2075037;28;20256;-56
2021/09/04 00:07:27;;;;;;;22.55;17.25;;;;;;;;;;2074436;28;20582;-55
2021/09/04 00:08:31;;;;;;;27.63;22.15;;;;;;;;;;2082507;28;20702;-55
2021/09/04 00:09:32;;;;;;;27.55;17.25;;;;;;;;;;2081941;28;20172;-56
2021/09/04 00:10:33;;;;;;;22.02;15.15;;;;;;;;;;2081855;28;20160;-56
2021/09/04 00:11:34;;;;;;;27.63;18.85;;;;;;;;;;2090392;28;20203;-54
2021/09/04 00:12:35;;;;;;;24.95;15.75;;;;;;;;;;2090630;28;20172;-53
2021/09/04 00:13:35;;;;;;;21.35;16.52;;;;;;;;;;2090838;28;20164;-56
2021/09/04 00:14:38;;;;;;;21.27;15.35;;;;;;;;;;2090586;28;20199;-53
2021/09/04 00:15:38;;;;;;;27.23;16.73;;;;;;;;;;2081433;28;20187;-53
2021/09/04 00:16:39;;;;;;;24.33;17.08;;;;;;;;;;2081853;28;20183;-52
2021/09/04 00:17:40;;;;;;;20.25;15.50;;;;;;;;;;2081522;28;20175;-52
2021/09/04 00:18:40;;;;;;;25.27;16.25;;;;;;;;;;2081763;28;20183;-54
2021/09/04 00:19:40;;;;;;;21.20;15.93;;;;;;;;;;2090952;28;20174;-52
2021/09/04 00:20:41;;;;;;;24.08;17.13;;;;;;;;;;2098514;28;20258;-56
2021/09/04 00:21:41;;;;;;;20.95;15.95;;;;;;;;;;2098559;28;20189;-53
2021/09/04 00:22:41;;;;;;;20.05;15.13;;;;;;;;;;2091292;28;20172;-55
2021/09/04 00:23:41;;;;;;;21.33;15.40;;;;;;;;;;2090918;28;20172;-52
2021/09/04 00:24:42;;;;;;;21.65;17.23;;;;;;;;;;2090346;28;20183;-54
2021/09/04 00:25:42;;;;;;;23.10;15.90;;;;;;;;;;2090997;28;20180;-53
2021/09/04 00:26:43;;;;;;;22.63;16.08;;;;;;;;;;2090989;28;20246;-52
2021/09/04 00:27:43;;;;;;;22.95;14.90;;;;;;;;;;2091120;28;20259;-52
2021/09/04 00:28:43;;;;;;;24.38;16.17;;;;;;;;;;2090375;28;20631;-52
2021/09/04 00:29:46;;;;;;;25.15;16.17;;;;;;;;;;2090817;28;20217;-52
2021/09/04 00:30:46;;;;;;;20.88;16.13;;;;;;;;;;2090893;28;20172;-53
2021/09/04 00:31:48;;;;;;;17.50;14.15;;;;;;;;;;2090934;28;20207;-52
2021/09/04 00:32:48;;;;;;;25.98;15.93;;;;;;;;;;2085612;28;20691;-51
2021/09/04 00:33:48;;;;;;;23.23;15.50;;;;;;;;;;2090401;28;20172;-52
2021/09/04 00:34:49;;;;;;;18.90;14.63;;;;;;;;;;2089140;28;20300;-52
2021/09/04 00:35:49;;;;;;;23.38;14.68;;;;;;;;;;2089296;28;20163;-53
2021/09/04 00:36:49;;;;;;;23.05;15.82;;;;;;;;;;2080676;28;20188;-53
2021/09/04 00:37:49;;;;;;;22.65;14.38;;;;;;;;;;2089509;28;21841;-54
2021/09/04 00:38:50;;;;;;;24.35;15.23;;;;;;;;;;2090677;28;20198;-54
2021/09/04 00:39:50;;;;;;;21.75;15.50;;;;;;;;;;2090230;28;20175;-52
2021/09/04 00:40:50;;;;;;;24.20;13.80;;;;;;;;;;2089377;28;20217;-55
2021/09/04 00:41:50;;;;;;;24.42;15.55;;;;;;;;;;2091849;28;20198;-53
2021/09/04 00:42:51;;;;;;;22.00;15.43;;;;;;;;;;2084615;28;20570;-56
2021/09/04 00:43:51;;;;;;;21.13;14.60;;;;;;;;;;2090476;28;20183;-53
2021/09/04 00:44:51;;;;;;;22.83;15.95;;;;;;;;;;2090549;28;20715;-53
2021/09/04 00:45:51;;;;;;;20.02;13.77;;;;;;;;;;2091009;28;20195;-54
2021/09/04 00:46:59;;;;;;;22.95;15.43;;;;;;;;;;2086867;28;20268;-54
2021/09/04 00:48:02;;;;;;;20.67;14.10;;;;;;;;;;2089709;28;20277;-52
2021/09/04 00:49:02;;;;;;;23.23;15.77;;;;;;;;;;2089338;28;20171;-55
2021/09/04 00:50:03;;;;;;;19.45;14.00;;;;;;;;;;2085452;28;20206;-52
2021/09/04 00:51:04;;;;;;;18.75;14.20;;;;;;;;;;2086870;28;20172;-54
2021/09/04 00:52:05;;;;;;;16.25;13.07;;;;;;;;;;2089089;28;20172;-55
2021/09/04 00:53:05;;;;;;;21.15;14.00;;;;;;;;;;2090649;28;20258;-54
2021/09/04 00:54:06;;;;;;;20.23;13.65;;;;;;;;;;2086608;28;20174;-55
2021/09/04 00:55:06;;;;;;;19.58;14.45;;;;;;;;;;2087944;28;20663;-52
2021/09/04 00:56:09;;;;;;;20.48;14.07;;;;;;;;;;2090723;28;20172;-53
2021/09/04 00:57:10;;;;;;;19.75;13.43;;;;;;;;;;2089929;28;20737;-53
2021/09/04 00:58:10;;;;;;;21.17;13.70;;;;;;;;;;2086929;28;20192;-56
2021/09/04 00:59:11;;;;;;;16.83;12.80;;;;;;;;;;2092090;28;20595;-53
2021/09/04 01:00:11;;;;;;;23.75;13.88;;;;;;;;;;2090172;28;20168;-55
2021/09/04 01:01:12;;;;;;;17.38;13.00;;;;;;;;;;2089554;28;20391;-55
2021/09/04 01:02:13;;;;;;;17.77;13.40;;;;;;;;;;2089720;28;20648;-54
2021/09/04 01:03:13;;;;;;;20.55;14.00;;;;;;;;;;2092300;28;20167;-53
2021/09/04 01:04:14;;;;;;;21.15;14.35;;;;;;;;;;2091333;28;20172;-53
2021/09/04 01:05:17;;;;;;;17.90;14.43;;;;;;;;;;2090481;28;20172;-55
2021/09/04 01:06:17;;;;;;;22.33;16.50;;;;;;;;;;2087998;28;20633;-53
2021/09/04 01:07:20;;;;;;;24.90;18.10;;;;;;;;;;2083741;28;20180;-53
2021/09/04 01:08:21;;;;;;;21.95;15.32;;;;;;;;;;2090329;28;20675;-54
2021/09/04 01:09:22;;;;;;;18.23;14.57;;;;;;;;;;2090931;28;20172;-53
2021/09/04 01:10:22;;;;;;;22.75;15.38;;;;;;;;;;2090779;28;20196;-56
2021/09/04 01:11:23;;;;;;;23.75;15.35;;;;;;;;;;2087687;28;20654;-54
2021/09/04 01:12:25;;;;;;;18.70;14.27;;;;;;;;;;2090018;28;20168;-53
2021/09/04 01:13:25;;;;;;;18.25;14.93;;;;;;;;;;2090033;28;20209;-55
2021/09/04 01:14:25;;;;;;;19.38;14.00;;;;;;;;;;2088559;28;20238;-52
2021/09/04 01:15:25;;;;;;;21.63;14.98;;;;;;;;;;2090417;28;20168;-56
2021/09/04 01:16:36;;;;;;;17.45;13.73;;;;;;;;;;2088114;28;20342;-53
2021/09/04 01:17:36;;;;;;;18.88;14.30;;;;;;;;;;2086293;28;20168;-56
2021/09/04 01:18:37;;;;;;;20.85;13.65;;;;;;;;;;2085013;28;20180;-54
2021/09/04 01:19:37;;;;;;;17.48;12.60;;;;;;;;;;2091260;28;20171;-57
2021/09/04 01:20:37;;;;;;;18.95;13.85;;;;;;;;;;2085352;28;20901;-56
2021/09/04 01:21:38;;;;;;;20.50;14.93;;;;;;;;;;2089878;28;20256;-55
2021/09/04 01:22:38;;;;;;;18.95;14.23;;;;;;;;;;2089719;28;20187;-54
2021/09/04 01:23:39;;;;;;;19.58;14.10;;;;;;;;;;2093789;28;20590;-52
2021/09/04 01:24:39;;;;;;;18.52;13.90;;;;;;;;;;2092600;28;20278;-58
2021/09/04 01:25:41;;;;;;;21.58;13.77;;;;;;;;;;2084093;28;20172;-54
2021/09/04 01:26:42;;;;;;;17.38;12.82;;;;;;;;;;2077797;28;20187;-52
2021/09/04 01:27:42;;;;;;;21.02;14.80;;;;;;;;;;2090470;28;20703;-53
2021/09/04 01:29:56;;;;;;;21.48;15.75;;;;;;;;;;2072340;28;20208;-54
2021/09/04 01:30:56;;;;;;;22.73;15.18;;;;;;;;;;2078171;28;20172;-53
2021/09/04 01:31:57;;;;;;;17.75;13.50;;;;;;;;;;2082573;28;20192;-52
2021/09/04 01:32:57;;;;;;;22.00;14.68;;;;;;;;;;2082782;28;20199;-52
2021/09/04 01:33:57;;;;;;;23.65;15.80;;;;;;;;;;2080523;28;20182;-55
2021/09/04 01:35:05;;;;;;;23.40;16.02;;;;;;;;;;2078791;28;20560;-52
2021/09/04 01:36:05;;;;;;;20.30;16.00;;;;;;;;;;2082144;28;20179;-56
2021/09/04 01:37:05;;;;;;;20.70;13.60;;;;;;;;;;2081697;28;20674;-56
2021/09/04 01:38:06;;;;;;;19.73;14.57;;;;;;;;;;2076967;28;20248;-54
2021/09/04 01:39:07;;;;;;;20.15;14.15;;;;;;;;;;2072725;28;20199;-51
2021/09/04 01:40:09;;;;;;;21.42;15.15;;;;;;;;;;2073254;28;20192;-51
2021/09/04 01:41:09;;;;;;;22.23;15.80;;;;;;;;;;2080494;28;20187;-53
2021/09/04 01:42:09;;;;;;;22.85;15.45;;;;;;;;;;2079011;28;20189;-51
2021/09/04 01:43:09;;;;;;;21.58;14.75;;;;;;;;;;2078744;28;20763;-51
2021/09/04 01:44:10;;;;;;;22.98;16.30;;;;;;;;;;2082553;28;20590;-52
2021/09/04 01:45:11;;;;;;;20.95;15.30;;;;;;;;;;2074145;28;20203;-49
2021/09/04 01:46:11;;;;;;;19.63;14.80;;;;;;;;;;2081921;28;20199;-53
2021/09/04 01:47:11;;;;;;;23.17;16.02;;;;;;;;;;2075846;28;20231;-52
2021/09/04 01:48:12;;;;;;;21.13;15.73;;;;;;;;;;2079530;28;20650;-50
2021/09/04 01:49:12;;;;;;;21.27;15.85;;;;;;;;;;2077219;28;20164;-49
2021/09/04 01:50:13;;;;;;;23.50;15.48;;;;;;;;;;2078251;28;20634;-50
2021/09/04 01:51:14;;;;;;;21.52;14.88;;;;;;;;;;2081495;28;20169;-51
2021/09/04 01:52:15;;;;;;;20.20;14.52;;;;;;;;;;2081013;28;20493;-54
2021/09/04 01:53:16;;;;;;;22.25;15.30;;;;;;;;;;2082115;28;20708;-53
2021/09/04 01:54:16;;;;;;;18.70;14.48;;;;;;;;;;2080207;28;20176;-48
2021/09/04 01:55:17;;;;;;;18.50;14.75;;;;;;;;;;2076175;28;20173;-54
2021/09/04 01:56:18;;;;;;;24.00;15.80;;;;;;;;;;2081290;28;20537;-52
2021/09/04 01:57:18;;;;;;;18.88;14.93;;;;;;;;;;2082857;28;20233;-51
2021/09/04 01:58:19;;;;;;;19.42;13.93;;;;;;;;;;2082177;28;20714;-49
2021/09/04 01:59:19;;;;;;;20.92;15.23;;;;;;;;;;2083849;28;20234;-47
2021/09/04 02:00:19;;;;;;;23.13;15.52;;;;;;;;;;2081355;28;20176;-49
2021/09/04 02:01:20;;;;;;;19.55;14.50;;;;;;;;;;2081211;28;20180;-51
2021/09/04 02:02:20;;;;;;;20.85;15.10;;;;;;;;;;2081417;28;20222;-56
2021/09/04 02:03:20;;;;;;;20.42;15.20;;;;;;;;;;2080647;28;20641;-50
2021/09/04 02:04:20;;;;;;;26.08;15.68;;;;;;;;;;2074107;28;20256;-51
2021/09/04 02:05:20;;;;;;;19.20;14.95;;;;;;;;;;2077770;28;20168;-52
2021/09/04 02:06:21;;;;;;;20.83;15.00;;;;;;;;;;2078591;28;20270;-50
2021/09/04 02:07:22;;;;;;;21.75;15.82;;;;;;;;;;2080201;28;20176;-48
2021/09/04 02:08:22;;;;;;;19.77;14.82;;;;;;;;;;2079606;28;20632;-48
2021/09/04 02:09:22;;;;;;;17.80;14.18;;;;;;;;;;2081296;28;20192;-52
2021/09/04 02:10:22;;;;;;;24.38;14.82;;;;;;;;;;2079774;28;20175;-51
2021/09/04 02:11:23;;;;;;;21.50;15.43;;;;;;;;;;2080741;28;20176;-53
2021/09/04 02:12:23;;;;;;;18.42;14.00;;;;;;;;;;2078836;28;20241;-55
2021/09/04 02:13:23;;;;;;;21.10;14.95;;;;;;;;;;2080834;28;20167;-54
2021/09/04 02:14:24;;;;;;;21.13;14.00;;;;;;;;;;2075337;28;20189;-55
2021/09/04 02:15:24;;;;;;;19.23;14.20;;;;;;;;;;2078244;28;20197;-55
2021/09/04 02:16:25;;;;;;;21.50;14.75;;;;;;;;;;2079313;28;20212;-52
2021/09/04 02:17:25;;;;;;;21.35;15.50;;;;;;;;;;2074388;28;20257;-54
2021/09/04 02:18:28;;;;;;;19.65;15.48;;;;;;;;;;2073303;28;20177;-51
2021/09/04 02:19:28;;;;;;;18.38;14.68;;;;;;;;;;2081116;28;20192;-53
2021/09/04 02:20:29;;;;;;;21.15;15.18;;;;;;;;;;2080795;28;20169;-55
2021/09/04 02:21:29;;;;;;;21.90;15.10;;;;;;;;;;2079986;28;20176;-48
2021/09/04 02:22:29;;;;;;;23.90;15.05;;;;;;;;;;2081825;28;20199;-53
2021/09/04 02:23:29;;;;;;;20.08;13.85;;;;;;;;;;2080765;28;20195;-55
2021/09/04 02:24:30;;;;;;;20.85;14.88;;;;;;;;;;2069345;28;20186;-54
2021/09/04 02:25:31;;;;;;;19.67;14.25;;;;;;;;;;2074511;28;20181;-57
2021/09/04 02:26:32;;;;;;;21.63;14.98;;;;;;;;;;2073625;28;20175;-51
2021/09/04 02:27:33;;;;;;;24.50;15.88;;;;;;;;;;2081219;28;20676;-52
2021/09/04 02:28:34;;;;;;;21.77;14.57;;;;;;;;;;2080456;28;20259;-50
2021/09/04 02:29:35;;;;;;;21.25;14.90;;;;;;;;;;2074954;28;20216;-52
2021/09/04 02:30:35;;;;;;;18.25;14.35;;;;;;;;;;2072837;28;20620;-52
2021/09/04 02:31:36;;;;;;;21.05;14.52;;;;;;;;;;2080986;28;20644;-54
2021/09/04 02:32:37;;;;;;;20.10;14.73;;;;;;;;;;2080760;28;20259;-52
2021/09/04 02:33:38;;;;;;;22.60;15.27;;;;;;;;;;2080195;28;20192;-52
2021/09/04 02:34:38;;;;;;;21.02;14.98;;;;;;;;;;2080690;28;20245;-54
2021/09/04 02:35:38;;;;;;;21.17;14.82;;;;;;;;;;2078232;28;20208;-52
2021/09/04 02:36:40;;;;;;;21.17;15.15;;;;;;;;;;2080796;28;20711;-52
2021/09/04 02:37:42;;;;;;;25.52;16.35;;;;;;;;;;2080521;28;20164;-50
2021/09/04 02:38:43;;;;;;;20.73;15.18;;;;;;;;;;2074957;28;20231;-53
2021/09/04 02:39:44;;;;;;;22.27;14.35;;;;;;;;;;2081078;28;20286;-52
2021/09/04 02:40:46;;;;;;;26.15;15.75;;;;;;;;;;2078397;28;20632;-53
2021/09/04 02:41:46;;;;;;;20.75;15.55;;;;;;;;;;2076315;28;20177;-51
2021/09/04 02:42:46;;;;;;;20.17;14.73;;;;;;;;;;2075766;28;20656;-54
2021/09/04 02:43:48;;;;;;;22.50;16.15;;;;;;;;;;2080708;28;20526;-49
2021/09/04 02:44:48;;;;;;;23.95;14.52;;;;;;;;;;2080634;28;20298;-54
2021/09/04 02:45:49;;;;;;;21.15;13.95;;;;;;;;;;2075936;28;20173;-52
2021/09/04 02:46:49;;;;;;;16.75;14.13;;;;;;;;;;2079883;28;20191;-51
2021/09/04 02:47:49;;;;;;;20.73;14.82;;;;;;;;;;2078341;28;20186;-49
2021/09/04 02:48:50;;;;;;;18.52;13.85;;;;;;;;;;2080388;28;20179;-51
2021/09/04 02:49:50;;;;;;;20.17;13.73;;;;;;;;;;2075776;28;20675;-56
2021/09/04 02:50:51;;;;;;;19.08;14.63;;;;;;;;;;2074362;28;20248;-50
2021/09/04 02:51:52;;;;;;;20.45;14.77;;;;;;;;;;2076091;28;20176;-50
2021/09/04 02:52:52;;;;;;;19.33;14.40;;;;;;;;;;2080340;28;20180;-51
2021/09/04 02:53:53;;;;;;;19.38;13.63;;;;;;;;;;2080745;28;20580;-51
2021/09/04 02:54:53;;;;;;;17.67;13.73;;;;;;;;;;2074592;28;20181;-54
2021/09/04 02:55:54;;;;;;;21.23;13.85;;;;;;;;;;2072916;28;20251;-51
2021/09/04 02:56:56;;;;;;;20.27;14.73;;;;;;;;;;2080204;28;20545;-54
2021/09/04 02:57:57;;;;;;;20.55;15.07;;;;;;;;;;2080200;28;20180;-52
2021/09/04 02:58:58;;;;;;;19.25;14.35;;;;;;;;;;2079841;28;20172;-51
2021/09/04 02:59:58;;;;;;;18.88;14.48;;;;;;;;;;2080060;28;20386;-52
2021/09/04 03:00:59;;;;;;;20.15;15.38;;;;;;;;;;2078685;28;20211;-51
2021/09/04 03:02:00;;;;;;;20.63;15.40;;;;;;;;;;2080787;28;20279;-54
2021/09/04 03:03:00;;;;;;;24.13;14.55;;;;;;;;;;2080362;28;20514;-50
2021/09/04 03:04:01;;;;;;;20.40;14.75;;;;;;;;;;2080429;28;20183;-52
2021/09/04 03:05:03;;;;;;;24.75;15.45;;;;;;;;;;2076664;28;20172;-51
2021/09/04 03:06:03;;;;;;;18.13;14.07;;;;;;;;;;2078165;28;20199;-52
2021/09/04 03:07:04;;;;;;;18.63;14.18;;;;;;;;;;2073858;28;20180;-53
2021/09/04 03:08:05;;;;;;;21.13;14.77;;;;;;;;;;2077464;28;20668;-54
2021/09/04 03:09:05;;;;;;;18.00;13.20;;;;;;;;;;2080047;28;20172;-55
2021/09/04 03:10:06;;;;;;;19.42;13.68;;;;;;;;;;2073277;28;20188;-52
2021/09/04 03:11:06;;;;;;;18.17;14.32;;;;;;;;;;2068054;28;20259;-53
2021/09/04 03:12:07;;;;;;;19.33;14.18;;;;;;;;;;2079174;28;20160;-55
2021/09/04 03:13:08;;;;;;;22.75;14.10;;;;;;;;;;2074827;28;20189;-53
2021/09/04 03:14:09;;;;;;;23.17;14.70;;;;;;;;;;2078332;28;20172;-52
2021/09/04 03:15:10;;;;;;;18.77;13.65;;;;;;;;;;2078490;28;20176;-53
2021/09/04 03:16:10;;;;;;;17.17;13.02;;;;;;;;;;2078927;28;20188;-56
2021/09/04 03:17:11;;;;;;;17.48;13.55;;;;;;;;;;2079912;28;20200;-53
2021/09/04 03:18:12;;;;;;;20.67;14.23;;;;;;;;;;2080473;28;20628;-52
2021/09/04 03:19:14;;;;;;;15.48;12.68;;;;;;;;;;2079090;28;20200;-51
2021/09/04 03:20:15;;;;;;;17.33;13.18;;;;;;;;;;2077505;28;20542;-56
2021/09/04 03:21:15;;;;;;;16.33;12.85;;;;;;;;;;2078842;28;20187;-54
2021/09/04 03:22:16;;;;;;;20.30;13.52;;;;;;;;;;2079238;28;20172;-55
2021/09/04 03:23:16;;;;;;;16.92;12.52;;;;;;;;;;2079239;28;20195;-51
2021/09/04 03:24:18;;;;;;;17.08;13.82;;;;;;;;;;2080434;28;20177;-51
2021/09/04 03:25:20;;;;;;;18.08;13.88;;;;;;;;;;2076861;28;20175;-54
2021/09/04 03:26:21;;;;;;;18.25;13.73;;;;;;;;;;2069756;28;20678;-54
2021/09/04 03:27:21;;;;;;;17.85;13.70;;;;;;;;;;2077164;28;20184;-52
2021/09/04 03:28:21;;;;;;;21.05;13.90;;;;;;;;;;2077410;28;20171;-55
2021/09/04 03:29:23;;;;;;;19.33;14.27;;;;;;;;;;2080238;28;20204;-50
2021/09/04 03:30:24;;;;;;;18.42;14.07;;;;;;;;;;2076296;28;20177;-52
2021/09/04 03:31:27;;;;;;;17.70;13.57;;;;;;;;;;2079952;28;20849;-52
2021/09/04 03:32:28;;;;;;;16.15;12.82;;;;;;;;;;2077032;28;20179;-49
2021/09/04 03:33:28;;;;;;;19.35;13.32;;;;;;;;;;2080952;28;20199;-49
2021/09/04 03:34:28;;;;;;;17.65;12.50;;;;;;;;;;2076871;28;20613;-49
2021/09/04 03:35:29;;;;;;;18.20;13.18;;;;;;;;;;2081285;28;20160;-50
2021/09/04 03:36:30;;;;;;;18.50;13.75;;;;;;;;;;2074406;28;20235;-52
2021/09/04 03:37:31;;;;;;;20.75;14.00;;;;;;;;;;2082028;28;20252;-53
2021/09/04 03:38:32;;;;;;;16.65;12.63;;;;;;;;;;2074651;28;20239;-49
2021/09/04 03:39:33;;;;;;;18.77;12.63;;;;;;;;;;2082900;28;20188;-49
2021/09/04 03:40:35;;;;;;;23.75;13.18;;;;;;;;;;2078062;28;20184;-51
2021/09/04 03:41:36;;;;;;;16.13;13.00;;;;;;;;;;2081281;28;20171;-53
2021/09/04 03:42:36;;;;;;;14.95;12.32;;;;;;;;;;2080640;28;20179;-50
2021/09/04 03:43:36;;;;;;;19.88;13.40;;;;;;;;;;2082363;28;20672;-49
2021/09/04 03:44:37;;;;;;;21.98;12.95;;;;;;;;;;2076403;28;20238;-50
2021/09/04 03:45:38;;;;;;;15.73;12.57;;;;;;;;;;2081335;28;20203;-52
2021/09/04 03:46:38;;;;;;;15.52;12.98;;;;;;;;;;2077570;28;20166;-49
2021/09/04 03:47:39;;;;;;;17.20;13.30;;;;;;;;;;2080745;28;20168;-54
2021/09/04 03:48:40;;;;;;;15.00;12.70;;;;;;;;;;2081578;28;20184;-50
2021/09/04 03:49:40;;;;;;;17.20;11.98;;;;;;;;;;2082563;28;20223;-50
2021/09/04 03:50:44;;;;;;;15.48;12.95;;;;;;;;;;2076367;28;20187;-52
2021/09/04 03:51:45;;;;;;;17.83;12.85;;;;;;;;;;2081439;28;20168;-53
2021/09/04 03:52:47;;;;;;;15.93;12.52;;;;;;;;;;2082476;28;20184;-54
2021/09/04 03:53:47;;;;;;;20.55;12.90;;;;;;;;;;2081912;28;20215;-50
2021/09/04 03:54:48;;;;;;;17.52;12.45;;;;;;;;;;2082626;28;20192;-49
2021/09/04 03:55:49;;;;;;;15.95;12.57;;;;;;;;;;2081893;28;20229;-49
2021/09/04 03:56:53;;;;;;;21.27;12.48;;;;;;;;;;2082755;28;20180;-49
2021/09/04 03:57:53;;;;;;;16.30;12.15;;;;;;;;;;2077193;28;20237;-50
2021/09/04 03:58:53;;;;;;;15.35;12.15;;;;;;;;;;2076704;28;20176;-49
2021/09/04 03:59:54;;;;;;;16.63;12.02;;;;;;;;;;2081935;28;20164;-51
2021/09/04 04:00:56;;;;;;;17.38;11.82;;;;;;;;;;2078241;28;20488;-49
2021/09/04 04:01:57;;;;;;;17.45;12.35;;;;;;;;;;2081258;28;20204;-51
2021/09/04 04:02:59;;;;;;;18.92;12.60;;;;;;;;;;2082040;28;20249;-53
2021/09/04 04:04:00;;;;;;;17.00;12.18;;;;;;;;;;2081495;28;20176;-49
2021/09/04 04:05:01;;;;;;;17.98;12.50;;;;;;;;;;2081076;28;20625;-48
2021/09/04 04:06:01;;;;;;;15.68;12.45;;;;;;;;;;2065607;28;20252;-49
2021/09/04 04:07:02;;;;;;;15.40;11.45;;;;;;;;;;2069945;28;20181;-53
2021/09/04 04:08:03;;;;;;;17.23;12.10;;;;;;;;;;2078001;28;20196;-55
2021/09/04 04:09:04;;;;;;;15.30;11.90;;;;;;;;;;2081878;28;20785;-52
2021/09/04 04:10:04;;;;;;;16.00;12.82;;;;;;;;;;2080798;28;20204;-50
2021/09/04 04:11:06;;;;;;;17.23;12.52;;;;;;;;;;2082348;28;20225;-52
2021/09/04 04:12:06;;;;;;;14.85;11.65;;;;;;;;;;2079737;28;20227;-50
2021/09/04 04:13:06;;;;;;;15.20;11.73;;;;;;;;;;2081808;28;20337;-51
2021/09/04 04:14:07;;;;;;;17.33;12.35;;;;;;;;;;2081313;28;20251;-51
2021/09/04 04:15:09;;;;;;;15.88;12.13;;;;;;;;;;2074111;28;20173;-54
2021/09/04 04:16:10;;;;;;;17.52;12.07;;;;;;;;;;2078054;28;20175;-55
2021/09/04 04:17:11;;;;;;;16.25;11.75;;;;;;;;;;2081708;28;20175;-49
2021/09/04 04:18:11;;;;;;;17.77;12.32;;;;;;;;;;2075851;28;20185;-49
2021/09/04 04:19:11;;;;;;;16.10;12.05;;;;;;;;;;2079165;28;20179;-50
2021/09/04 04:20:12;;;;;;;16.35;11.70;;;;;;;;;;2075737;28;20173;-49
2021/09/04 04:21:13;;;;;;;15.73;12.35;;;;;;;;;;2079553;28;20226;-49
2021/09/04 04:22:15;;;;;;;14.48;11.48;;;;;;;;;;2080491;28;20177;-51
2021/09/04 04:23:16;;;;;;;17.17;11.68;;;;;;;;;;2081836;28;20645;-49
2021/09/04 04:24:18;;;;;;;18.13;12.93;;;;;;;;;;2078524;28;20176;-51
2021/09/04 04:25:18;;;;;;;14.57;11.75;;;;;;;;;;2080407;28;20179;-49
2021/09/04 04:26:19;;;;;;;14.27;12.27;;;;;;;;;;2077871;28;20235;-53
2021/09/04 04:27:19;;;;;;;14.95;12.45;;;;;;;;;;2080818;28;20650;-49
2021/09/04 04:28:20;;;;;;;14.80;11.70;;;;;;;;;;2072128;28;20257;-49
2021/09/04 04:29:20;;;;;;;14.25;12.20;;;;;;;;;;2079797;28;20208;-51
2021/09/04 04:30:21;;;;;;;15.43;11.32;;;;;;;;;;2079312;28;20195;-51
2021/09/04 04:31:21;;;;;;;14.32;12.27;;;;;;;;;;2080720;28;20172;-50
2021/09/04 04:32:22;;;;;;;14.77;11.80;;;;;;;;;;2076249;28;20185;-47
2021/09/04 04:33:22;;;;;;;16.85;11.88;;;;;;;;;;2080771;28;20160;-53
2021/09/04 04:34:23;;;;;;;15.32;12.40;;;;;;;;;;2081189;28;20640;-54
2021/09/04 04:35:23;;;;;;;16.73;12.75;;;;;;;;;;2082386;28;20180;-52
2021/09/04 04:36:24;;;;;;;16.02;12.20;;;;;;;;;;2074848;28;20227;-50
2021/09/04 04:37:24;;;;;;;15.68;12.43;;;;;;;;;;2080715;28;20259;-50
2021/09/04 04:38:25;;;;;;;16.58;12.27;;;;;;;;;;2081334;28;20203;-49
2021/09/04 04:39:25;;;;;;;21.75;13.18;;;;;;;;;;2081138;28;20203;-49
2021/09/04 04:40:25;;;;;;;19.40;13.50;;;;;;;;;;2079256;28;20177;-48
2021/09/04 04:41:27;;;;;;;18.17;14.07;;;;;;;;;;2081726;28;20203;-49
2021/09/04 04:42:29;;;;;;;20.80;12.95;;;;;;;;;;2078093;28;20177;-49
2021/09/04 04:43:30;;;;;;;17.77;14.13;;;;;;;;;;2084512;28;20251;-48
2021/09/04 04:44:31;;;;;;;19.60;14.73;;;;;;;;;;2078653;28;20171;-52
2021/09/04 04:45:32;;;;;;;18.95;13.45;;;;;;;;;;2082596;28;20244;-54
2021/09/04 04:46:34;;;;;;;17.65;13.02;;;;;;;;;;2082835;28;20207;-55
2021/09/04 04:47:36;;;;;;;18.38;12.68;;;;;;;;;;2084785;28;20263;-49
2021/09/04 04:48:38;;;;;;;15.40;12.75;;;;;;;;;;2074869;28;20727;-50
2021/09/04 04:49:39;;;;;;;18.65;13.73;;;;;;;;;;2081474;28;20199;-52
2021/09/04 04:50:39;;;;;;;18.25;14.07;;;;;;;;;;2079028;28;20526;-54
2021/09/04 04:51:40;;;;;;;16.48;13.43;;;;;;;;;;2081339;28;20648;-50
2021/09/04 04:52:41;;;;;;;18.58;13.88;;;;;;;;;;2081673;28;20195;-52
2021/09/04 04:53:41;;;;;;;18.20;14.43;;;;;;;;;;2081491;28;20168;-53
2021/09/04 04:54:42;;;;;;;17.38;14.32;;;;;;;;;;2081106;28;20172;-52
2021/09/04 04:55:43;;;;;;;17.58;14.98;;;;;;;;;;2074640;28;20182;-51
2021/09/04 04:56:44;;;;;;;23.77;15.20;;;;;;;;;;2077674;28;20180;-49
2021/09/04 04:57:45;;;;;;;14.85;12.50;;;;;;;;;;2075937;28;20189;-56
2021/09/04 04:58:45;;;;;;;16.55;13.68;;;;;;;;;;2082626;28;20156;-54
2021/09/04 04:59:46;;;;;;;17.20;14.75;;;;;;;;;;2081375;28;20205;-53
2021/09/04 05:00:46;;;;;;;21.70;15.02;;;;;;;;;;2078215;28;20177;-53
2021/09/04 05:01:46;;;;;;;20.60;15.18;;;;;;;;;;2077142;28;20185;-52
2021/09/04 05:02:49;;;;;;;18.48;15.18;;;;;;;;;;2082088;28;20176;-49
2021/09/04 05:03:50;;;;;;;16.75;14.07;;;;;;;;;;2080923;28;20183;-50
2021/09/04 05:04:50;;;;;;;17.65;14.70;;;;;;;;;;2081474;28;20268;-49
2021/09/04 05:05:51;;;;;;;16.45;14.55;;;;;;;;;;2080803;28;20264;-51
2021/09/04 05:06:51;;;;;;;20.17;15.35;;;;;;;;;;2081230;28;20168;-55
2021/09/04 05:07:52;;;;;;;19.23;15.23;;;;;;;;;;2075790;28;20180;-50
2021/09/04 05:08:53;;;;;;;17.23;13.48;;;;;;;;;;2079551;28;20533;-51
2021/09/04 05:09:56;;;;;;;19.48;15.40;;;;;;;;;;2075735;28;20545;-51
2021/09/04 05:10:57;;;;;;;17.98;15.40;;;;;;;;;;2078529;28;20177;-52
2021/09/04 05:12:00;;;;;;;18.52;15.55;;;;;;;;;;2078769;28;20183;-51
2021/09/04 05:13:02;;;;;;;17.80;15.55;;;;;;;;;;2074829;28;20668;-50
2021/09/04 05:14:03;;;;;;;22.65;16.73;;;;;;;;;;2073132;28;20176;-56
2021/09/04 05:15:04;;;;;;;21.92;16.13;;;;;;;;;;2082122;28;20663;-53
2021/09/04 05:16:04;;;;;;;19.40;16.95;;;;;;;;;;2080632;28;20181;-52
2021/09/04 05:17:05;;;;;;;17.52;15.05;;;;;;;;;;2078476;28;20172;-51
2021/09/04 05:18:07;;;;;;;22.08;16.55;;;;;;;;;;2080450;28;20276;-52
2021/09/04 05:19:08;;;;;;;23.52;18.05;;;;;;;;;;2082024;28;20172;-55
2021/09/04 05:20:09;;;;;;;21.17;18.20;;;;;;;;;;2078105;28;20169;-53
2021/09/04 05:21:09;;;;;;;23.63;18.67;;;;;;;;;;2079353;28;20714;-53
2021/09/04 05:22:09;;;;;;;22.05;19.63;;;;;;;;;;2078077;28;20184;-56
2021/09/04 05:23:13;;;;;;;21.17;17.73;;;;;;;;;;2068226;28;20186;-53
2021/09/04 05:24:14;;;;;;;20.85;18.45;;;;;;;;;;2077096;28;20172;-54
2021/09/04 05:25:15;;;;;;;26.63;18.38;;;;;;;;;;2078102;28;20268;-48
2021/09/04 05:26:16;;;;;;;20.52;17.27;;;;;;;;;;2077677;28;20196;-51
2021/09/04 05:27:17;;;;;;;20.95;16.70;;;;;;;;;;2079739;28;20191;-51
2021/09/04 05:28:17;;;;;;;19.13;15.73;;;;;;;;;;2078597;28;20192;-51
2021/09/04 05:29:17;;;;;;;21.30;17.13;;;;;;;;;;2080729;28;20200;-52
2021/09/04 05:30:17;;;;;;;20.42;16.65;;;;;;;;;;2081304;28;20176;-53
2021/09/04 05:31:18;;;;;;;21.50;17.30;;;;;;;;;;2070583;28;20169;-52
2021/09/04 05:32:23;;;;;;;19.30;17.20;;;;;;;;;;2077027;28;20199;-56
2021/09/04 05:33:23;;;;;;;20.70;18.52;;;;;;;;;;2082063;28;20181;-55
2021/09/04 05:34:23;;;;;;;21.27;17.33;;;;;;;;;;2083828;28;20168;-55
2021/09/04 05:35:24;;;;;;;21.38;19.02;;;;;;;;;;2082447;28;20173;-52
2021/09/04 05:36:24;;;;;;;23.13;18.50;;;;;;;;;;2082229;28;20184;-54
2021/09/04 05:37:24;;;;;;;23.83;18.33;;;;;;;;;;2064731;28;20194;-50
2021/09/04 05:38:24;;;;;;;18.30;16.40;;;;;;;;;;2069932;28;20674;-53
2021/09/04 05:39:25;;;;;;;24.15;18.15;;;;;;;;;;2077622;28;20204;-51
2021/09/04 05:40:25;;;;;;;20.52;17.15;;;;;;;;;;2086171;28;20175;-49
2021/09/04 05:41:25;;;;;;;21.75;17.63;;;;;;;;;;2082182;28;20184;-51
2021/09/04 05:42:26;;;;;;;18.30;16.40;;;;;;;;;;2080596;28;20196;-52
2021/09/04 05:43:26;;;;;;;23.45;18.48;;;;;;;;;;2076059;28;20276;-49
2021/09/04 05:44:26;;;;;;;21.83;17.67;;;;;;;;;;2081985;28;20255;-49
2021/09/04 05:45:27;;;;;;;22.25;17.13;;;;;;;;;;2081066;28;20531;-49
2021/09/04 05:46:27;;;;;;;22.48;17.92;;;;;;;;;;2076138;28;20197;-51
2021/09/04 05:47:27;;;;;;;23.70;19.60;;;;;;;;;;2080850;28;20675;-53
2021/09/04 05:48:27;;;;;;;20.30;17.42;;;;;;;;;;2080962;28;20172;-51
2021/09/04 05:49:28;;;;;;;19.45;17.45;;;;;;;;;;2080802;28;20199;-51
2021/09/04 05:50:28;;;;;;;22.42;19.50;;;;;;;;;;2081413;28;20537;-49
2021/09/04 05:51:28;;;;;;;22.48;19.25;;;;;;;;;;2080897;28;20672;-53
2021/09/04 05:52:29;;;;;;;26.90;20.13;;;;;;;;;;2080920;28;20172;-49
2021/09/04 05:53:29;;;;;;;29.40;20.25;;;;;;;;;;2079217;28;20175;-51
2021/09/04 05:54:30;;;;;;;27.73;20.90;;;;;;;;;;2075965;28;20267;-51